createdAt,value
2018-11-13T00:01:20.766Z,10.80
2018-11-13T00:09:42.154Z,10.80
2018-11-13T00:18:03.629Z,10.90
2018-11-13T00:26:25.044Z,10.80
2018-11-13T00:34:46.446Z,10.90
2018-11-13T00:43:07.801Z,11.00
2018-11-13T00:51:29.229Z,11.10
2018-11-13T00:59:50.672Z,11.30
2018-11-13T01:08:12.066Z,11.10
2018-11-13T01:16:33.513Z,11.10
2018-11-13T01:24:54.997Z,11.10
2018-11-13T01:33:16.424Z,11.20
2018-11-13T01:41:37.900Z,11.10
2018-11-13T01:49:59.197Z,11.20
2018-11-13T01:58:20.559Z,11.10
2018-11-13T02:06:41.930Z,11.00
2018-11-13T02:15:03.380Z,10.90
2018-11-13T02:23:24.745Z,10.90
2018-11-13T02:31:46.106Z,10.80
2018-11-13T02:40:07.573Z,10.70
2018-11-13T02:48:28.970Z,10.80
2018-11-13T02:56:50.330Z,10.80
2018-11-13T03:05:13.814Z,10.70
2018-11-13T03:13:35.217Z,10.80
2018-11-13T03:21:56.569Z,10.90
2018-11-13T03:30:20.315Z,10.80
2018-11-13T03:38:41.701Z,10.90
2018-11-13T03:47:03.112Z,10.90
2018-11-13T03:55:24.494Z,10.90
2018-11-13T04:03:45.850Z,10.90
2018-11-13T04:12:07.226Z,10.90
2018-11-13T04:20:28.575Z,10.90
2018-11-13T04:28:49.942Z,11.10
2018-11-13T04:37:11.302Z,11.40
2018-11-13T04:45:32.649Z,11.40
2018-11-13T04:53:54.051Z,11.50
2018-11-13T05:02:15.424Z,11.70
2018-11-13T05:10:36.790Z,11.80
2018-11-13T05:18:58.157Z,11.90
2018-11-13T05:27:19.534Z,11.90
2018-11-13T05:35:40.904Z,11.90
2018-11-13T05:44:02.289Z,11.80
2018-11-13T05:52:23.650Z,11.80
2018-11-13T06:00:45.055Z,11.80
2018-11-13T06:09:06.418Z,11.60
2018-11-13T06:17:27.787Z,11.70
2018-11-13T06:25:49.174Z,11.60
2018-11-13T06:34:10.558Z,11.70
2018-11-13T06:42:31.923Z,11.60
2018-11-13T06:50:53.358Z,14.40
2018-11-13T06:59:14.785Z,12.30
2018-11-13T07:07:36.249Z,12.00
2018-11-13T07:15:57.655Z,11.90
2018-11-13T07:24:19.018Z,11.90
2018-11-13T07:32:40.743Z,11.80
2018-11-13T07:41:02.275Z,11.80
2018-11-13T07:49:23.646Z,11.70
2018-11-13T07:57:45.314Z,11.60
2018-11-13T08:06:06.811Z,14.60
2018-11-13T08:14:28.121Z,12.00
2018-11-13T08:22:49.570Z,11.70
2018-11-13T08:31:11.058Z,12.10
2018-11-13T08:39:32.694Z,11.60
2018-11-13T08:47:54.144Z,11.60
2018-11-13T08:56:15.506Z,11.50
2018-11-13T09:04:36.880Z,11.60
2018-11-13T09:12:58.311Z,11.60
2018-11-13T09:21:19.669Z,11.60
2018-11-13T09:29:41.173Z,11.70
2018-11-13T09:38:02.520Z,11.70
2018-11-13T09:46:23.994Z,11.80
2018-11-13T09:54:45.334Z,11.80
2018-11-13T10:03:07.352Z,11.90
2018-11-13T10:11:28.130Z,12.00
2018-11-13T10:19:49.563Z,12.30
2018-11-13T10:28:10.981Z,12.30
2018-11-13T10:36:32.289Z,12.10
2018-11-13T10:44:53.709Z,12.10
2018-11-13T10:53:15.083Z,12.10
2018-11-13T11:01:42.102Z,12.30
2018-11-13T11:10:03.543Z,12.10
2018-11-13T11:18:24.901Z,12.00
2018-11-13T11:26:46.293Z,11.90
2018-11-13T11:35:07.693Z,12.00
2018-11-13T11:52:21.129Z,12.40
2018-11-13T12:00:42.623Z,16.30
2018-11-13T12:09:04.978Z,18.80
2018-11-13T12:17:26.345Z,19.10
2018-11-13T12:25:47.742Z,13.30
2018-11-13T12:34:09.137Z,12.90
2018-11-13T12:42:30.542Z,12.60
2018-11-13T12:51:03.893Z,12.60
2018-11-13T12:59:25.326Z,12.60
2018-11-13T13:07:46.740Z,12.60
2018-11-13T13:16:08.067Z,12.70
2018-11-13T13:24:29.464Z,12.60
2018-11-13T13:32:51.157Z,12.40
2018-11-13T13:41:12.486Z,12.40
2018-11-13T13:49:33.858Z,12.60
2018-11-13T13:57:55.257Z,12.60
2018-11-13T14:06:16.646Z,12.60
2018-11-13T14:14:38.058Z,12.50
2018-11-13T14:22:59.405Z,12.40
2018-11-13T14:31:20.774Z,12.50
2018-11-13T14:39:42.157Z,12.70
2018-11-13T14:48:03.617Z,12.70
2018-11-13T14:56:25.003Z,12.70
2018-11-13T15:04:46.395Z,12.60
2018-11-13T15:13:08.509Z,12.50
2018-11-13T15:21:29.874Z,12.30
2018-11-13T15:29:51.636Z,12.10
2018-11-13T15:38:12.998Z,12.00
2018-11-13T15:46:34.415Z,11.80
2018-11-13T15:54:55.754Z,11.60
2018-11-13T16:03:17.123Z,11.50
2018-11-13T16:11:38.611Z,11.80
2018-11-13T16:19:59.978Z,11.40
2018-11-13T16:28:21.405Z,11.20
2018-11-13T16:36:42.782Z,10.90
2018-11-13T16:45:04.130Z,10.70
2018-11-13T16:53:25.488Z,10.20
2018-11-13T17:01:46.864Z,10.10
2018-11-13T17:10:08.284Z,9.90
2018-11-13T17:18:29.733Z,9.80
2018-11-13T17:26:51.113Z,9.40
2018-11-13T17:35:13.698Z,9.10
2018-11-13T17:43:35.143Z,9.10
2018-11-13T17:51:56.519Z,9.10
2018-11-13T18:00:20.174Z,8.90
2018-11-13T18:08:41.534Z,8.70
2018-11-13T18:17:02.894Z,8.60
2018-11-13T18:25:24.398Z,8.60
2018-11-13T18:33:45.778Z,8.40
2018-11-13T18:42:07.204Z,8.20
2018-11-13T18:50:29.802Z,7.90
2018-11-13T18:58:51.197Z,7.90
2018-11-13T19:07:12.554Z,7.90
2018-11-13T19:15:34.001Z,7.90
2018-11-13T19:23:55.392Z,7.60
2018-11-13T19:32:16.722Z,7.40
2018-11-13T19:40:38.158Z,7.40
2018-11-13T19:48:59.513Z,7.30
2018-11-13T19:57:20.930Z,7.10
2018-11-13T20:05:42.368Z,6.90
2018-11-13T20:14:03.725Z,6.70
2018-11-13T20:22:25.082Z,6.60
2018-11-13T20:30:46.537Z,6.60
2018-11-13T20:39:07.863Z,6.50
2018-11-13T20:47:29.234Z,6.30
2018-11-13T20:55:50.702Z,6.40
2018-11-13T21:04:12.162Z,6.10
2018-11-13T21:12:33.616Z,6.00
2018-11-13T21:20:55.011Z,6.00
2018-11-13T21:29:16.371Z,6.20
2018-11-13T21:37:38.124Z,6.10
2018-11-13T21:45:59.605Z,5.90
2018-11-13T21:54:20.993Z,13.20
2018-11-13T22:02:42.469Z,6.60
2018-11-13T22:11:03.941Z,5.70
2018-11-13T22:19:25.428Z,5.60
2018-11-13T22:27:48.206Z,5.20
2018-11-13T22:36:09.205Z,5.30
2018-11-13T22:44:30.550Z,5.30
2018-11-13T22:52:52.357Z,4.90
2018-11-13T23:01:13.848Z,4.80
2018-11-13T23:09:36.083Z,4.90
2018-11-13T23:17:57.513Z,4.60
2018-11-13T23:26:18.866Z,4.60
2018-11-13T23:34:40.233Z,4.50
2018-11-13T23:43:01.595Z,4.40
2018-11-13T23:51:23.036Z,4.60
2018-11-13T23:59:44.386Z,4.40
